首页
METAR-TAF:

METAR-TAF

机场 :

格林斯伯勒, 北卡罗来纳州, 美国

纬度: 36-05-51N, 经度: 079-56-37W, 海拔: 282米

当前天气观测

该预报发布于31分钟前的19:54 UTC
风速6节,风向
温度 11°C
湿度 58%
气压 1016 hPa
能見度: 16.1公里
少量云层高于2700英尺
散云层高于5000英尺
散云层高于10000英尺

METAR: KGSO 171954Z 01006KT 10SM FEW027 SCT050 SCT100 11/03 A2999 RMK AO2 SLP155 T01110028

时间: 15:25 (20:25 UTC)

预报

该预报发布于2小时和45分钟前的17:40 UTC
预报有效从17日的 18点(UTC)到 18日的 18点(UTC)
风速9节,风向北转东北,有时为16节阵风
能見度: 10公里
少量云层高于3000英尺
多云层高于5000英尺
从 18日的 0200点(UTC)
风速3节,风向北转东北
能見度: 10公里
散云层高于1800英尺
多云层高于5000英尺
短暂存在
从 18日的 08点(UTC)到 18日的 12点(UTC)
多云层高于1800英尺

TAF: KGSO 171740Z 1718/1818 03009G16KT P6SM FEW030 BKN050 FM180200 02003KT P6SM SCT018 BKN050 TEMPO 1808/1812 BKN018

超过4000个机场的气象观测和天气预报(METAR&TAF报告)。

可查询的气象台以黄色和红色小点在地图上表示。

将鼠标移到小点上方,可查看气象台名称。

然后点击查看天气观测和预报。

如需切换地图:点击带黑十字的绿色按钮放大地图;点击带横线的绿色按钮缩小地图;或者点击绿色箭头查看邻近地区的地图。


METAR-TAF: